createdAt,value
2022-09-24T00:00:28.909Z,78.02
2022-09-24T00:01:28.980Z,78.02
2022-09-24T00:02:28.956Z,77.82
2022-09-24T00:03:28.894Z,77.82
2022-09-24T00:04:28.869Z,77.62
2022-09-24T00:05:28.853Z,77.51
2022-09-24T00:06:28.861Z,77.42
2022-09-24T00:07:28.842Z,77.42
2022-09-24T00:08:28.839Z,77.62
2022-09-24T00:09:28.827Z,77.42
2022-09-24T00:10:28.808Z,77.31
2022-09-24T00:11:28.800Z,77.42
2022-09-24T00:12:28.802Z,77.42
2022-09-24T00:13:28.797Z,77.42
2022-09-24T00:14:28.753Z,77.51
2022-09-24T00:15:28.759Z,77.51
2022-09-24T00:16:28.785Z,77.42
2022-09-24T00:17:28.726Z,77.42
2022-09-24T00:18:28.722Z,77.31
2022-09-24T00:19:28.883Z,77.21
2022-09-24T00:20:28.685Z,77.21
2022-09-24T00:21:28.696Z,77.21
2022-09-24T00:22:28.675Z,77.21
2022-09-24T00:23:28.657Z,77.21
2022-09-24T00:28:13.144Z,77.11
2022-09-24T00:29:13.104Z,77.11
2022-09-24T00:30:13.101Z,77.11
2022-09-24T00:31:13.138Z,77.11
2022-09-24T00:32:13.040Z,77.11
2022-09-24T00:33:13.027Z,77.11
2022-09-24T00:34:13.035Z,77.01
2022-09-24T00:35:13.029Z,77.01
2022-09-24T00:36:13.012Z,77.01
2022-09-24T00:37:13.004Z,77.01
2022-09-24T00:38:12.986Z,77.01
2022-09-24T00:39:12.987Z,77.01
2022-09-24T00:40:13.012Z,77.01
2022-09-24T00:41:12.998Z,77.01
2022-09-24T00:42:12.955Z,77.01
2022-09-24T00:43:12.937Z,77.01
2022-09-24T00:44:12.915Z,77.01
2022-09-24T00:45:12.892Z,77.01
2022-09-24T00:46:13.264Z,77.01
2022-09-24T00:47:12.899Z,77.01
2022-09-24T00:48:12.923Z,77.01
2022-09-24T00:49:12.849Z,76.91
2022-09-24T00:50:12.841Z,76.91
2022-09-24T00:51:12.874Z,76.91
2022-09-24T00:52:12.851Z,76.91
2022-09-24T00:53:12.821Z,76.91
2022-09-24T00:54:12.813Z,76.91
2022-09-24T00:55:12.783Z,76.81
2022-09-24T00:56:12.782Z,76.81
2022-09-24T00:57:12.774Z,76.81
2022-09-24T00:58:12.761Z,76.91
2022-09-24T00:59:12.746Z,76.91
2022-09-24T01:00:12.737Z,77.01
2022-09-24T01:01:12.806Z,77.11
2022-09-24T01:02:12.852Z,77.21
2022-09-24T01:03:12.716Z,77.21
2022-09-24T01:04:12.711Z,77.31
2022-09-24T01:05:12.687Z,77.42
2022-09-24T01:06:12.661Z,77.42
2022-09-24T01:07:12.678Z,77.51
2022-09-24T01:08:12.694Z,77.62
2022-09-24T01:09:12.621Z,77.72
2022-09-24T01:10:12.777Z,77.82
2022-09-24T01:11:12.620Z,77.82
2022-09-24T01:12:12.614Z,78.02
2022-09-24T01:13:12.663Z,78.22
2022-09-24T01:14:12.644Z,78.32
2022-09-24T01:15:12.578Z,78.42
2022-09-24T01:16:12.719Z,78.42
2022-09-24T01:17:12.959Z,78.42
2022-09-24T01:18:12.555Z,78.52
2022-09-24T01:19:12.530Z,78.52
2022-09-24T01:20:12.511Z,78.52
2022-09-24T01:21:12.496Z,78.63
2022-09-24T01:22:12.506Z,78.72
2022-09-24T01:23:12.510Z,78.72
2022-09-24T01:24:12.494Z,78.72
2022-09-24T01:25:12.502Z,78.63
2022-09-24T01:26:12.438Z,78.63
2022-09-24T01:27:12.426Z,78.63
2022-09-24T01:28:12.412Z,78.63
2022-09-24T01:29:12.419Z,78.72
2022-09-24T01:30:12.409Z,78.63
2022-09-24T01:31:12.417Z,78.72
2022-09-24T01:32:12.392Z,78.72
2022-09-24T01:33:12.401Z,78.72
2022-09-24T01:34:12.436Z,78.72
2022-09-24T01:35:12.431Z,78.83
2022-09-24T01:36:12.334Z,78.83
2022-09-24T01:37:12.344Z,78.83
2022-09-24T01:38:12.333Z,78.92
2022-09-24T01:39:12.329Z,78.92
2022-09-24T01:40:12.367Z,79.03
2022-09-24T01:41:12.282Z,79.13
2022-09-24T01:42:12.282Z,79.03
2022-09-24T01:43:12.264Z,79.09
2022-09-24T01:44:12.287Z,79.09
2022-09-24T01:45:12.230Z,79.29
2022-09-24T01:46:12.253Z,79.19
2022-09-24T01:47:12.208Z,79.09
2022-09-24T01:48:12.292Z,78.99
2022-09-24T01:49:12.201Z,78.99
2022-09-24T01:50:12.233Z,78.99
2022-09-24T01:51:12.181Z,79.19
2022-09-24T01:52:12.476Z,79.29
2022-09-24T01:53:12.188Z,79.29
2022-09-24T01:54:12.153Z,79.19
2022-09-24T01:55:12.132Z,79.09
2022-09-24T01:56:12.274Z,78.99
2022-09-24T01:57:12.097Z,78.92
2022-09-24T01:58:12.137Z,78.99
2022-09-24T01:59:12.128Z,79.13
2022-09-24T02:00:12.089Z,79.23
2022-09-24T02:01:12.145Z,79.23
2022-09-24T02:02:12.113Z,79.33
2022-09-24T02:03:12.080Z,79.33
2022-09-24T02:04:12.070Z,79.43
2022-09-24T02:05:12.029Z,79.43
2022-09-24T02:06:12.048Z,79.53
2022-09-24T02:07:12.021Z,79.63
2022-09-24T02:08:12.018Z,79.63
2022-09-24T02:09:12.206Z,79.63
2022-09-24T02:10:11.956Z,79.73
2022-09-24T02:11:11.972Z,79.73
2022-09-24T02:12:12.802Z,79.83
2022-09-24T02:13:11.925Z,79.83
2022-09-24T02:14:11.924Z,79.93
2022-09-24T02:15:11.911Z,79.93
2022-09-24T02:16:12.011Z,79.93
2022-09-24T02:17:11.877Z,80.04
2022-09-24T02:18:11.874Z,80.04
2022-09-24T02:19:11.885Z,80.04
2022-09-24T02:20:11.876Z,80.13
2022-09-24T02:21:11.867Z,80.24
2022-09-24T02:22:11.838Z,80.13
2022-09-24T02:23:11.869Z,80.13
2022-09-24T02:24:11.808Z,80.13
2022-09-24T02:25:11.798Z,80.13
2022-09-24T02:26:11.785Z,80.13
2022-09-24T02:27:11.783Z,80.13
2022-09-24T02:28:11.836Z,80.13
2022-09-24T02:29:11.813Z,80.13
2022-09-24T02:30:11.838Z,80.04
2022-09-24T02:31:11.906Z,80.04
2022-09-24T02:32:11.812Z,80.04
2022-09-24T02:33:11.799Z,80.04
2022-09-24T02:34:11.776Z,80.04
2022-09-24T02:35:11.704Z,80.04
2022-09-24T02:36:11.691Z,80.13
2022-09-24T02:37:11.681Z,80.04
2022-09-24T02:38:11.803Z,80.04
2022-09-24T02:39:11.649Z,80.13
2022-09-24T02:40:11.694Z,80.13
2022-09-24T02:41:11.629Z,80.24
2022-09-24T02:42:11.637Z,80.33
2022-09-24T02:43:11.593Z,80.33
2022-09-24T02:44:11.583Z,80.33
2022-09-24T02:45:11.575Z,80.33
2022-09-24T02:46:11.783Z,80.33
2022-09-24T02:47:11.804Z,80.33
2022-09-24T02:48:11.557Z,80.33
2022-09-24T02:49:11.578Z,80.44
2022-09-24T02:50:11.513Z,80.44
2022-09-24T02:51:11.528Z,80.44
2022-09-24T02:52:11.490Z,80.44
2022-09-24T02:53:11.493Z,80.44
2022-09-24T02:54:11.545Z,80.44
2022-09-24T02:55:11.453Z,80.44
2022-09-24T02:56:11.440Z,80.44
2022-09-24T02:57:11.459Z,80.54
2022-09-24T02:58:11.431Z,80.54
2022-09-24T02:59:11.522Z,80.54
2022-09-24T03:00:11.428Z,80.44
2022-09-24T03:01:11.393Z,80.54
2022-09-24T03:02:11.533Z,80.54
2022-09-24T03:03:11.390Z,80.54
2022-09-24T03:04:11.412Z,80.54
2022-09-24T03:05:11.365Z,80.64
2022-09-24T03:06:11.343Z,80.64
2022-09-24T03:07:11.344Z,80.64
2022-09-24T03:08:11.324Z,80.64
2022-09-24T03:09:11.335Z,80.64
2022-09-24T03:10:11.301Z,80.64
2022-09-24T03:11:15.078Z,80.64
2022-09-24T03:12:12.293Z,80.74
2022-09-24T03:13:11.273Z,80.74
2022-09-24T03:14:11.309Z,80.74
2022-09-24T03:15:11.264Z,80.84
2022-09-24T03:16:11.306Z,80.84
2022-09-24T03:17:11.242Z,80.84
2022-09-24T03:18:11.214Z,80.84
2022-09-24T03:19:11.188Z,80.84
2022-09-24T03:20:11.189Z,80.94
2022-09-24T03:21:11.183Z,80.94
2022-09-24T03:22:11.159Z,80.94
2022-09-24T03:23:11.207Z,80.94
2022-09-24T03:24:11.176Z,80.94
2022-09-24T03:25:11.148Z,80.94
2022-09-24T03:26:11.118Z,81.04
2022-09-24T03:27:11.121Z,81.08
2022-09-24T03:28:11.090Z,81.15
2022-09-24T03:29:11.090Z,81.28
2022-09-24T03:30:11.068Z,81.24
2022-09-24T03:31:11.110Z,81.28
2022-09-24T03:32:11.068Z,81.28
2022-09-24T03:33:11.049Z,81.35
2022-09-24T03:34:11.071Z,81.38
2022-09-24T03:35:11.031Z,81.48
2022-09-24T03:36:11.013Z,81.48
2022-09-24T03:37:11.021Z,81.48
2022-09-24T03:38:10.992Z,81.59
2022-09-24T03:39:10.970Z,81.59
2022-09-24T03:40:11.006Z,81.59
2022-09-24T03:41:10.967Z,81.59
2022-09-24T03:42:10.939Z,81.59
2022-09-24T03:43:10.937Z,81.68
2022-09-24T03:44:10.978Z,81.68
2022-09-24T03:45:10.962Z,81.68
2022-09-24T03:46:11.013Z,81.68
2022-09-24T03:47:10.902Z,81.68
2022-09-24T03:48:10.890Z,81.68
2022-09-24T03:49:10.867Z,81.68
2022-09-24T03:50:10.847Z,81.79
2022-09-24T03:51:10.838Z,81.79
2022-09-24T03:52:10.819Z,81.79
2022-09-24T03:53:10.817Z,81.79
2022-09-24T03:54:10.886Z,81.79
2022-09-24T03:55:10.809Z,81.79
2022-09-24T03:56:10.790Z,81.89
2022-09-24T03:57:10.792Z,81.89
2022-09-24T03:58:10.771Z,81.89
2022-09-24T03:59:10.784Z,81.89
2022-09-24T04:00:10.785Z,81.79
2022-09-24T04:01:10.741Z,81.89
2022-09-24T04:02:10.764Z,81.79
2022-09-24T04:03:10.889Z,81.89
2022-09-24T04:04:10.731Z,81.89
2022-09-24T04:05:10.700Z,81.89
2022-09-24T04:06:10.680Z,81.89
2022-09-24T04:07:10.654Z,81.99
2022-09-24T04:08:10.667Z,81.89
2022-09-24T04:09:10.648Z,81.89
2022-09-24T04:10:10.632Z,81.89
2022-09-24T04:11:10.639Z,81.89
2022-09-24T04:12:10.624Z,81.89
2022-09-24T04:13:10.615Z,81.89
2022-09-24T04:14:10.614Z,81.89
2022-09-24T04:15:10.577Z,81.89
2022-09-24T04:16:10.612Z,81.89
2022-09-24T04:17:10.567Z,81.89
2022-09-24T04:18:10.534Z,81.89
2022-09-24T04:19:10.532Z,81.89
2022-09-24T04:20:10.517Z,81.99
2022-09-24T04:21:10.528Z,81.99
2022-09-24T04:22:10.494Z,81.99
2022-09-24T04:23:10.509Z,81.99
2022-09-24T04:24:10.501Z,82.09
2022-09-24T04:25:14.736Z,82.09
2022-09-24T04:26:10.459Z,82.09
2022-09-24T04:27:10.460Z,82.09
2022-09-24T04:28:10.417Z,82.09
2022-09-24T04:29:10.435Z,82.09
2022-09-24T04:30:10.409Z,82.19
2022-09-24T04:31:10.441Z,82.09
2022-09-24T04:32:10.395Z,82.09
2022-09-24T04:33:10.372Z,82.09
2022-09-24T04:34:10.489Z,82.09
2022-09-24T04:35:10.375Z,82.09
2022-09-24T04:36:10.323Z,82.09
2022-09-24T04:37:10.333Z,82.19
2022-09-24T04:38:10.434Z,82.19
2022-09-24T04:39:10.312Z,82.29
2022-09-24T04:40:10.358Z,82.39
2022-09-24T04:41:10.295Z,82.39
2022-09-24T04:42:10.282Z,82.39
2022-09-24T04:43:10.314Z,82.39
2022-09-24T04:44:10.490Z,82.39
2022-09-24T04:45:10.268Z,82.39
2022-09-24T04:46:10.343Z,82.39
2022-09-24T04:47:10.232Z,82.39
2022-09-24T04:48:10.200Z,82.39
2022-09-24T04:49:10.204Z,82.39
2022-09-24T04:50:10.194Z,82.50
2022-09-24T04:51:10.193Z,82.50
2022-09-24T04:52:10.157Z,82.39
2022-09-24T04:53:10.164Z,82.50
2022-09-24T04:54:10.139Z,82.50
2022-09-24T04:55:10.121Z,82.50
2022-09-24T04:56:10.120Z,82.50
2022-09-24T04:57:10.126Z,82.39
2022-09-24T04:58:10.114Z,82.50
2022-09-24T04:59:10.110Z,82.50
2022-09-24T05:00:10.079Z,82.50
2022-09-24T05:01:10.072Z,82.50
2022-09-24T05:02:10.219Z,82.50
2022-09-24T05:03:10.167Z,82.50
2022-09-24T05:04:10.035Z,82.50
2022-09-24T05:05:10.034Z,82.50
2022-09-24T05:06:10.024Z,82.50
2022-09-24T05:07:10.023Z,82.50
2022-09-24T05:08:09.980Z,82.50
2022-09-24T05:09:12.538Z,82.50
2022-09-24T05:10:09.972Z,82.59
2022-09-24T05:11:09.969Z,82.59
2022-09-24T05:12:09.949Z,82.59
2022-09-24T05:13:09.929Z,82.59
2022-09-24T05:14:09.916Z,82.50
2022-09-24T05:15:09.899Z,82.50
2022-09-24T05:16:09.940Z,82.50
2022-09-24T05:17:09.917Z,82.59
2022-09-24T05:18:09.868Z,82.59
2022-09-24T05:19:09.879Z,82.70
2022-09-24T05:20:09.860Z,82.70
2022-09-24T05:21:09.838Z,82.70
2022-09-24T05:22:09.850Z,82.70
2022-09-24T05:23:09.820Z,82.70
2022-09-24T05:24:09.818Z,82.70
2022-09-24T05:25:09.824Z,82.59
2022-09-24T05:26:09.802Z,82.70
2022-09-24T05:27:09.801Z,82.70
2022-09-24T05:28:09.792Z,82.70
2022-09-24T05:29:09.824Z,82.70
2022-09-24T05:30:09.761Z,82.79
2022-09-24T05:31:09.828Z,82.70
2022-09-24T05:32:09.730Z,82.70
2022-09-24T05:33:09.715Z,82.70
2022-09-24T05:34:09.719Z,82.79
2022-09-24T05:35:09.687Z,82.90
2022-09-24T05:36:09.698Z,83.00
2022-09-24T05:37:09.684Z,83.10
2022-09-24T05:38:09.669Z,83.10
2022-09-24T05:39:09.777Z,83.00
2022-09-24T05:40:09.705Z,83.00
2022-09-24T05:41:09.620Z,83.10
2022-09-24T05:42:09.607Z,83.10
2022-09-24T05:43:09.799Z,83.10
2022-09-24T05:44:09.600Z,83.10
2022-09-24T05:45:09.601Z,83.10
2022-09-24T05:46:09.645Z,83.10
2022-09-24T05:47:09.571Z,83.10
2022-09-24T05:48:09.536Z,83.20
2022-09-24T05:49:09.648Z,83.20
2022-09-24T05:50:09.557Z,83.20
2022-09-24T05:51:09.508Z,83.20
2022-09-24T05:52:09.513Z,83.20
2022-09-24T05:53:09.507Z,83.10
2022-09-24T05:54:09.497Z,83.00
2022-09-24T05:55:09.475Z,83.00
2022-09-24T05:56:09.471Z,83.00
2022-09-24T05:57:09.446Z,83.00
2022-09-24T05:58:09.432Z,83.00
2022-09-24T05:59:09.515Z,83.00
2022-09-24T06:00:09.417Z,83.00
2022-09-24T06:01:09.428Z,83.00
2022-09-24T06:02:09.459Z,83.00
2022-09-24T06:03:09.478Z,82.90
2022-09-24T06:04:09.471Z,83.00
2022-09-24T06:05:09.374Z,83.00
2022-09-24T06:06:09.335Z,83.00
2022-09-24T06:07:09.359Z,83.00
2022-09-24T06:08:09.314Z,83.00
2022-09-24T06:09:09.403Z,83.00
2022-09-24T06:10:09.328Z,83.00
2022-09-24T06:11:09.293Z,83.00
2022-09-24T06:12:09.276Z,83.00
2022-09-24T06:13:09.290Z,83.00
2022-09-24T06:14:09.318Z,82.90
2022-09-24T06:15:09.261Z,82.90
2022-09-24T06:16:09.341Z,82.90
2022-09-24T06:17:09.234Z,82.90
2022-09-24T06:18:09.224Z,82.90
2022-09-24T06:19:09.237Z,83.00
2022-09-24T06:20:09.182Z,83.00
2022-09-24T06:21:09.217Z,83.00
2022-09-24T06:22:09.174Z,82.90
2022-09-24T06:23:09.163Z,82.90
2022-09-24T06:24:09.141Z,82.90
2022-09-24T06:25:16.168Z,83.00
2022-09-24T06:26:09.115Z,83.00
2022-09-24T06:27:10.259Z,83.00
2022-09-24T06:28:09.106Z,83.00
2022-09-24T06:29:09.157Z,83.00
2022-09-24T06:30:09.101Z,83.00
2022-09-24T06:31:09.185Z,83.00
2022-09-24T06:32:09.076Z,83.00
2022-09-24T06:33:09.077Z,83.00
2022-09-24T06:34:09.036Z,83.00
2022-09-24T06:35:09.049Z,83.00
2022-09-24T06:36:09.024Z,83.00
2022-09-24T06:37:09.016Z,83.00
2022-09-24T06:38:08.995Z,83.00
2022-09-24T06:39:09.045Z,83.00
2022-09-24T06:40:08.992Z,83.00
2022-09-24T06:41:09.050Z,83.00
2022-09-24T06:42:08.957Z,83.00
2022-09-24T06:43:08.966Z,83.00
2022-09-24T06:44:08.937Z,83.00
2022-09-24T06:45:08.919Z,83.00
2022-09-24T06:46:08.993Z,83.00
2022-09-24T06:47:08.953Z,83.00
2022-09-24T06:48:08.885Z,83.00
2022-09-24T06:49:08.907Z,83.10
2022-09-24T06:50:08.878Z,83.10
2022-09-24T06:51:08.855Z,83.10
2022-09-24T06:52:08.843Z,83.20
2022-09-24T06:53:08.838Z,83.20
2022-09-24T06:54:08.835Z,83.30
2022-09-24T06:55:08.826Z,83.30
2022-09-24T06:56:08.791Z,83.30
2022-09-24T06:57:08.791Z,83.20
2022-09-24T06:58:08.798Z,83.30
2022-09-24T06:59:08.836Z,83.30
2022-09-24T07:00:08.759Z,83.30
2022-09-24T07:01:08.789Z,83.20
2022-09-24T07:02:08.811Z,83.20
2022-09-24T07:03:08.755Z,83.20
2022-09-24T07:04:08.731Z,83.20
2022-09-24T07:05:08.691Z,83.30
2022-09-24T07:06:08.706Z,83.30
2022-09-24T07:07:08.707Z,83.30
2022-09-24T07:08:08.704Z,83.30
2022-09-24T07:09:08.675Z,83.30
2022-09-24T07:10:08.656Z,83.30
2022-09-24T07:11:08.649Z,83.30
2022-09-24T07:12:08.620Z,83.30
2022-09-24T07:13:08.613Z,83.40
2022-09-24T07:14:08.606Z,83.40
2022-09-24T07:15:08.597Z,83.40
2022-09-24T07:16:08.631Z,83.40
2022-09-24T07:17:08.567Z,83.40
2022-09-24T07:18:08.551Z,83.40
2022-09-24T07:19:08.622Z,83.40
2022-09-24T07:20:08.546Z,83.40
2022-09-24T07:21:08.527Z,83.40
2022-09-24T07:22:08.542Z,83.40
2022-09-24T07:23:08.517Z,83.40
2022-09-24T07:24:08.505Z,83.40
2022-09-24T07:25:08.471Z,83.40
2022-09-24T07:26:08.495Z,83.40
2022-09-24T07:27:08.499Z,83.40
2022-09-24T07:28:08.462Z,83.40
2022-09-24T07:29:08.491Z,83.40
2022-09-24T07:30:08.431Z,83.40
2022-09-24T07:31:08.475Z,83.40
2022-09-24T07:32:08.398Z,83.30
2022-09-24T07:33:08.399Z,83.30
2022-09-24T07:34:08.483Z,83.30
2022-09-24T07:35:08.390Z,83.30
2022-09-24T07:36:08.346Z,83.30
2022-09-24T07:37:08.350Z,83.30
2022-09-24T07:38:08.329Z,83.30
2022-09-24T07:39:08.321Z,83.40
2022-09-24T07:40:08.377Z,83.30
2022-09-24T07:41:08.303Z,83.40
2022-09-24T07:42:08.291Z,83.40
2022-09-24T07:43:08.269Z,83.40
2022-09-24T07:44:08.297Z,83.40
2022-09-24T07:45:08.261Z,83.50
2022-09-24T07:46:08.300Z,83.40
2022-09-24T07:47:12.112Z,83.40
2022-09-24T07:48:09.217Z,83.50
2022-09-24T07:49:08.207Z,83.50
2022-09-24T07:50:08.222Z,83.50
2022-09-24T07:51:08.177Z,83.50
2022-09-24T07:52:08.166Z,83.50
2022-09-24T07:53:08.188Z,83.50
2022-09-24T07:54:08.183Z,83.50
2022-09-24T07:55:08.164Z,83.50
2022-09-24T07:56:08.150Z,83.40
2022-09-24T07:57:08.130Z,83.50
2022-09-24T07:58:08.116Z,83.50
2022-09-24T07:59:08.087Z,83.50
2022-09-24T08:00:08.123Z,83.50
2022-09-24T08:01:08.078Z,83.50
2022-09-24T08:02:08.139Z,83.50
2022-09-24T08:03:08.045Z,83.60
2022-09-24T08:04:08.137Z,83.50
2022-09-24T08:05:08.025Z,83.50
2022-09-24T08:06:08.045Z,83.60
2022-09-24T08:07:07.998Z,83.60
2022-09-24T08:08:08.006Z,83.50
2022-09-24T08:09:07.983Z,83.50
2022-09-24T08:10:08.003Z,83.50
2022-09-24T08:11:07.977Z,83.40
2022-09-24T08:12:08.005Z,83.40
2022-09-24T08:13:07.960Z,83.50
2022-09-24T08:14:07.999Z,83.50
2022-09-24T08:15:07.907Z,83.50
2022-09-24T08:16:07.976Z,83.50
2022-09-24T08:17:07.906Z,83.50
2022-09-24T08:18:07.909Z,83.50
2022-09-24T08:19:07.877Z,83.50
2022-09-24T08:20:07.871Z,83.50
2022-09-24T08:21:07.885Z,83.50
2022-09-24T08:22:07.868Z,83.50
2022-09-24T08:23:07.816Z,83.40
2022-09-24T08:24:07.893Z,83.50
2022-09-24T08:25:07.838Z,83.50
2022-09-24T08:26:07.806Z,83.50
2022-09-24T08:27:07.774Z,83.50
2022-09-24T08:28:07.780Z,83.40
2022-09-24T08:29:07.779Z,83.50
2022-09-24T08:30:07.753Z,83.50
2022-09-24T08:31:07.782Z,83.50
2022-09-24T08:32:07.732Z,83.50
2022-09-24T08:33:07.732Z,83.50
2022-09-24T08:34:07.775Z,83.60
2022-09-24T08:35:07.708Z,83.60
2022-09-24T08:36:07.682Z,83.70
2022-09-24T08:37:07.666Z,83.70
2022-09-24T08:38:07.680Z,83.70
2022-09-24T08:39:07.670Z,83.60
2022-09-24T08:40:07.703Z,83.60
2022-09-24T08:41:07.646Z,83.70
2022-09-24T08:42:07.623Z,83.70
2022-09-24T08:43:07.996Z,83.70
2022-09-24T08:44:07.653Z,83.70
2022-09-24T08:45:07.581Z,83.70
2022-09-24T08:46:07.599Z,83.70
2022-09-24T08:47:07.564Z,83.70
2022-09-24T08:48:07.553Z,83.70
2022-09-24T08:49:07.534Z,83.70
2022-09-24T08:50:07.528Z,83.80
2022-09-24T08:51:07.532Z,83.70
2022-09-24T08:52:07.513Z,83.70
2022-09-24T08:53:07.504Z,83.80
2022-09-24T08:54:07.572Z,83.80
2022-09-24T08:55:07.480Z,83.70
2022-09-24T08:56:07.488Z,83.70
2022-09-24T08:57:07.454Z,83.80
2022-09-24T08:58:07.464Z,83.80
2022-09-24T08:59:07.439Z,83.80
2022-09-24T09:00:07.447Z,83.80
2022-09-24T09:01:07.424Z,83.80
2022-09-24T09:02:07.537Z,83.91
2022-09-24T09:03:07.456Z,83.91
2022-09-24T09:04:07.446Z,83.80
2022-09-24T09:05:07.366Z,83.91
2022-09-24T09:06:07.365Z,83.91
2022-09-24T09:07:07.331Z,83.91
2022-09-24T09:08:27.311Z,83.91
2022-09-24T09:09:08.328Z,83.91
2022-09-24T09:10:07.314Z,84.01
2022-09-24T09:11:07.305Z,83.91
2022-09-24T09:12:07.304Z,84.01
2022-09-24T09:13:07.285Z,83.91
2022-09-24T09:14:07.273Z,83.91
2022-09-24T09:15:07.249Z,83.91
2022-09-24T09:16:07.339Z,83.91
2022-09-24T09:17:07.233Z,84.01
2022-09-24T09:18:07.219Z,84.01
2022-09-24T09:19:07.298Z,83.91
2022-09-24T09:20:07.216Z,84.01
2022-09-24T09:21:07.178Z,84.01
2022-09-24T09:22:07.197Z,84.01
2022-09-24T09:23:07.171Z,84.01
2022-09-24T09:24:07.167Z,84.11
2022-09-24T09:25:07.147Z,84.01
2022-09-24T09:26:07.128Z,84.01
2022-09-24T09:27:07.126Z,84.01
2022-09-24T09:28:07.106Z,84.01
2022-09-24T09:29:07.169Z,84.01
2022-09-24T09:30:11.829Z,84.01
2022-09-24T09:31:08.178Z,84.01
2022-09-24T09:32:07.058Z,84.11
2022-09-24T09:33:07.084Z,84.11
2022-09-24T09:34:07.050Z,84.11
2022-09-24T09:35:07.017Z,84.11
2022-09-24T09:36:07.030Z,84.11
2022-09-24T09:37:07.003Z,84.11
2022-09-24T09:38:06.998Z,84.11
2022-09-24T09:39:06.989Z,84.11
2022-09-24T09:40:07.005Z,84.21
2022-09-24T09:41:06.980Z,84.31
2022-09-24T09:42:06.952Z,84.41
2022-09-24T09:43:06.937Z,84.51
2022-09-24T09:44:07.037Z,84.51
2022-09-24T09:45:06.929Z,84.71
2022-09-24T09:46:06.945Z,84.61
2022-09-24T09:47:06.912Z,84.61
2022-09-24T09:48:06.887Z,84.61
2022-09-24T09:49:06.899Z,84.61
2022-09-24T09:50:06.881Z,84.51
2022-09-24T09:51:06.872Z,84.41
2022-09-24T09:52:06.861Z,84.41
2022-09-24T09:53:06.838Z,84.31
2022-09-24T09:54:06.843Z,84.31
2022-09-24T09:55:06.810Z,84.21
2022-09-24T09:56:06.837Z,84.21
2022-09-24T09:57:06.787Z,84.21
2022-09-24T09:58:06.801Z,84.21
2022-09-24T09:59:06.755Z,84.21
2022-09-24T10:00:06.778Z,84.11
2022-09-24T10:01:06.763Z,84.11
2022-09-24T10:02:06.808Z,84.21
2022-09-24T10:03:06.821Z,84.11
2022-09-24T10:04:06.721Z,84.01
2022-09-24T10:05:06.745Z,84.01
2022-09-24T10:06:06.711Z,83.91
2022-09-24T10:07:06.674Z,83.91
2022-09-24T10:08:06.676Z,83.80
2022-09-24T10:09:06.687Z,83.50
2022-09-24T10:10:06.636Z,83.60
2022-09-24T10:11:06.635Z,83.60
2022-09-24T10:12:06.636Z,83.60
2022-09-24T10:13:06.615Z,83.60
2022-09-24T10:14:06.612Z,83.60
2022-09-24T10:15:06.585Z,83.50
2022-09-24T10:16:06.669Z,83.50
2022-09-24T10:17:06.565Z,83.50
2022-09-24T10:18:06.568Z,83.40
2022-09-24T10:19:06.547Z,83.40
2022-09-24T10:20:06.526Z,83.30
2022-09-24T10:21:06.559Z,83.30
2022-09-24T10:22:06.546Z,83.30
2022-09-24T10:23:06.504Z,83.20
2022-09-24T10:24:06.482Z,83.10
2022-09-24T10:25:06.486Z,83.10
2022-09-24T10:26:06.487Z,83.10
2022-09-24T10:27:06.443Z,83.10
2022-09-24T10:28:06.486Z,83.00
2022-09-24T10:29:06.450Z,83.00
2022-09-24T10:30:06.412Z,83.00
2022-09-24T10:31:06.502Z,83.00
2022-09-24T10:32:06.507Z,82.90
2022-09-24T10:33:06.385Z,82.90
2022-09-24T10:34:06.373Z,82.90
2022-09-24T10:35:06.399Z,82.70
2022-09-24T10:36:06.346Z,82.59
2022-09-24T10:37:10.886Z,82.50
2022-09-24T10:38:06.342Z,82.29
2022-09-24T10:39:06.325Z,82.09
2022-09-24T10:40:06.358Z,82.09
2022-09-24T10:41:06.303Z,82.09
2022-09-24T10:42:06.301Z,81.89
2022-09-24T10:43:06.274Z,81.79
2022-09-24T10:44:06.305Z,81.68
2022-09-24T10:45:06.280Z,81.59
2022-09-24T10:46:06.312Z,81.48
2022-09-24T10:47:06.326Z,81.48
2022-09-24T10:48:06.227Z,81.48
2022-09-24T10:49:06.205Z,81.48
2022-09-24T10:50:06.193Z,81.38
2022-09-24T10:51:06.198Z,81.28
2022-09-24T10:52:06.170Z,81.18
2022-09-24T10:53:06.150Z,81.12
2022-09-24T10:54:06.180Z,80.98
2022-09-24T10:55:06.139Z,80.92
2022-09-24T10:56:06.173Z,80.78
2022-09-24T10:57:06.121Z,80.72
2022-09-24T10:58:06.143Z,80.72
2022-09-24T10:59:06.126Z,80.62
2022-09-24T11:00:06.101Z,80.62
2022-09-24T11:01:06.081Z,80.51
2022-09-24T11:02:06.113Z,80.41
2022-09-24T11:03:06.106Z,80.31
2022-09-24T11:04:06.088Z,80.21
2022-09-24T11:05:06.051Z,80.21
2022-09-24T11:06:06.017Z,80.11
2022-09-24T11:07:05.997Z,80.11
2022-09-24T11:08:06.041Z,80.01
2022-09-24T11:09:06.009Z,80.01
2022-09-24T11:10:05.982Z,80.01
2022-09-24T11:11:06.033Z,79.91
2022-09-24T11:12:05.964Z,79.81
2022-09-24T11:13:05.934Z,79.81
2022-09-24T11:14:05.919Z,79.71
2022-09-24T11:15:05.929Z,79.71
2022-09-24T11:16:05.987Z,79.61
2022-09-24T11:17:05.910Z,79.61
2022-09-24T11:18:05.895Z,79.50
2022-09-24T11:19:05.882Z,79.41
2022-09-24T11:20:05.856Z,79.30
2022-09-24T11:21:05.897Z,79.30
2022-09-24T11:22:05.839Z,79.21
2022-09-24T11:23:05.870Z,79.21
2022-09-24T11:24:05.906Z,79.21
2022-09-24T11:25:05.834Z,79.10
2022-09-24T11:26:05.786Z,79.10
2022-09-24T11:27:05.777Z,79.00
2022-09-24T11:28:05.777Z,79.00
2022-09-24T11:29:05.772Z,79.00
2022-09-24T11:30:05.764Z,79.00
2022-09-24T11:31:05.804Z,79.00
2022-09-24T11:32:05.740Z,79.00
2022-09-24T11:33:05.714Z,79.00
2022-09-24T11:34:05.774Z,78.96
2022-09-24T11:35:05.709Z,78.90
2022-09-24T11:36:05.684Z,78.90
2022-09-24T11:37:05.689Z,78.86
2022-09-24T11:38:05.674Z,78.76
2022-09-24T11:39:05.655Z,78.86
2022-09-24T11:40:05.639Z,78.96
2022-09-24T11:41:05.727Z,79.06
2022-09-24T11:42:05.626Z,79.06
2022-09-24T11:43:05.628Z,78.96
2022-09-24T11:44:05.708Z,78.76
2022-09-24T11:45:05.584Z,78.66
2022-09-24T11:46:05.636Z,78.66
2022-09-24T11:47:05.589Z,78.66
2022-09-24T11:48:05.565Z,78.66
2022-09-24T11:49:05.542Z,78.66
2022-09-24T11:50:05.548Z,78.56
2022-09-24T11:51:06.366Z,78.56
2022-09-24T11:52:05.548Z,78.56
2022-09-24T11:53:05.509Z,78.56
2022-09-24T11:54:05.651Z,78.56
2022-09-24T11:55:05.498Z,78.46
2022-09-24T11:56:08.293Z,78.56
2022-09-24T11:57:06.580Z,78.56
2022-09-24T11:58:05.443Z,78.56
2022-09-24T11:59:05.449Z,78.46
2022-09-24T12:00:05.445Z,78.46
2022-09-24T12:01:05.417Z,78.46
2022-09-24T12:02:05.494Z,78.46
2022-09-24T12:03:05.472Z,78.46
2022-09-24T12:04:05.397Z,78.26
2022-09-24T12:05:05.365Z,78.26
2022-09-24T12:06:05.389Z,78.06
2022-09-24T12:07:05.421Z,77.95
2022-09-24T12:08:05.342Z,77.95
2022-09-24T12:09:05.360Z,78.06
2022-09-24T12:10:05.481Z,78.06
2022-09-24T12:11:05.364Z,78.16
2022-09-24T12:12:05.316Z,78.16
2022-09-24T12:13:05.403Z,78.26
2022-09-24T12:14:05.335Z,78.46
2022-09-24T12:15:05.299Z,78.46
2022-09-24T12:16:05.310Z,78.46
2022-09-24T12:17:05.242Z,78.56
2022-09-24T12:18:05.269Z,78.46
2022-09-24T12:19:05.248Z,78.46
2022-09-24T12:20:05.256Z,78.36
2022-09-24T12:21:05.184Z,78.46
2022-09-24T12:22:05.239Z,78.46
2022-09-24T12:23:06.637Z,78.46
2022-09-24T12:24:05.258Z,78.56
2022-09-24T12:25:05.153Z,78.56
2022-09-24T12:26:05.163Z,78.46
2022-09-24T12:27:05.126Z,78.46
2022-09-24T12:28:05.126Z,78.36
2022-09-24T12:29:05.103Z,78.26
2022-09-24T12:30:05.099Z,78.16
2022-09-24T12:31:08.648Z,78.06
2022-09-24T12:32:06.102Z,78.06
2022-09-24T12:33:05.099Z,77.95
2022-09-24T12:34:05.143Z,77.95
2022-09-24T12:35:05.117Z,77.86
2022-09-24T12:36:05.035Z,77.86
2022-09-24T12:37:05.060Z,77.86
2022-09-24T12:38:04.995Z,77.86
2022-09-24T12:39:05.018Z,77.75
2022-09-24T12:40:05.201Z,77.75
2022-09-24T12:41:05.005Z,77.75
2022-09-24T12:42:05.042Z,77.66
2022-09-24T12:43:04.983Z,77.66
2022-09-24T12:44:05.018Z,77.66
2022-09-24T12:45:04.929Z,77.66
2022-09-24T12:46:04.989Z,77.66
2022-09-24T12:47:04.952Z,77.75
2022-09-24T12:48:04.917Z,77.66
2022-09-24T12:49:05.047Z,77.66
2022-09-24T12:50:04.895Z,77.75
2022-09-24T12:51:04.933Z,77.75
2022-09-24T12:52:04.865Z,77.75
2022-09-24T12:53:04.866Z,77.66
2022-09-24T12:54:04.872Z,77.75
2022-09-24T12:55:04.834Z,77.66
2022-09-24T12:56:04.981Z,77.66